Time;durP1;ratioP1;P1;durP2;ratioP2;P2;SDS_P1;SDS_P2;PMS_P1;PMS_P2;Temp;Humidity;BMP_temperature;BMP_pressure;BME280_temperature;BME280_humidity;BME280_pressure;Samples;Min_cycle;Max_cycle;Signal;HPM_P1;HPM_P2
2024/02/22 00:00:31;;;;;;;14.27;9.67;;;3.20;99.90;;;;;;4193483;28;20277;-63
2024/02/22 00:02:33;;;;;;;14.00;8.20;;;3.10;99.90;;;;;;4194877;28;20338;-59
2024/02/22 00:04:35;;;;;;;14.37;8.27;;;3.10;99.90;;;;;;4193959;28;20664;-53
2024/02/22 00:06:39;;;;;;;13.63;8.70;;;3.00;99.90;;;;;;4194389;28;20304;-61
2024/02/22 00:08:41;;;;;;;13.73;9.30;;;3.00;99.90;;;;;;4194405;28;20277;-62
2024/02/22 00:10:42;;;;;;;17.47;10.27;;;2.90;99.90;;;;;;4194619;28;20323;-61
2024/02/22 00:12:44;;;;;;;15.20;10.07;;;2.90;99.90;;;;;;4194695;28;20274;-58
2024/02/22 00:14:45;;;;;;;18.93;10.97;;;2.80;99.90;;;;;;4194098;28;20760;-59
2024/02/22 00:16:46;;;;;;;18.03;10.07;;;2.80;99.90;;;;;;4194763;28;20836;-59
2024/02/22 00:18:48;;;;;;;15.50;9.73;;;2.70;99.90;;;;;;4193803;28;20335;-53
2024/02/22 00:20:49;;;;;;;16.03;8.53;;;2.70;99.90;;;;;;4194517;28;20741;-58
2024/02/22 00:22:52;;;;;;;16.70;10.63;;;2.70;99.90;;;;;;4194216;28;20261;-61
2024/02/22 00:24:53;;;;;;;16.20;9.67;;;2.70;99.90;;;;;;4194807;28;20780;-60
2024/02/22 00:26:54;;;;;;;15.53;9.70;;;2.70;99.90;;;;;;4193495;28;20273;-61
2024/02/22 00:28:55;;;;;;;16.93;10.77;;;2.70;99.90;;;;;;4194511;28;20273;-63
2024/02/22 00:30:57;;;;;;;22.40;11.63;;;2.60;99.90;;;;;;4193545;28;20595;-53
2024/02/22 00:32:58;;;;;;;18.47;10.97;;;2.60;99.90;;;;;;4194439;28;20265;-60
2024/02/22 00:34:59;;;;;;;20.57;11.37;;;2.60;99.90;;;;;;4193289;28;20704;-52
2024/02/22 00:37:00;;;;;;;17.00;9.90;;;2.50;99.90;;;;;;4194521;28;20326;-63
2024/02/22 00:39:01;;;;;;;15.70;9.77;;;2.50;99.90;;;;;;4194087;28;20311;-63
2024/02/22 00:41:03;;;;;;;20.67;11.50;;;2.50;99.90;;;;;;4194279;28;20277;-63
2024/02/22 00:43:04;;;;;;;18.57;10.30;;;2.40;99.90;;;;;;4193694;28;20266;-62
2024/02/22 00:45:06;;;;;;;19.83;10.63;;;2.40;99.90;;;;;;4192822;28;20304;-63
2024/02/22 00:47:07;;;;;;;20.80;10.67;;;2.40;99.90;;;;;;4193865;28;20287;-58
2024/02/22 00:49:08;;;;;;;16.83;10.20;;;2.30;99.90;;;;;;4193526;28;20266;-61
2024/02/22 00:51:10;;;;;;;12.80;8.77;;;2.30;99.90;;;;;;4194785;28;20347;-63
2024/02/22 00:53:11;;;;;;;17.87;8.77;;;2.30;99.90;;;;;;4193545;28;20692;-63
2024/02/22 00:55:12;;;;;;;14.57;8.20;;;2.20;99.90;;;;;;4193632;28;20297;-59
2024/02/22 00:57:14;;;;;;;13.57;8.53;;;2.20;99.90;;;;;;4193464;28;20261;-58
2024/02/22 00:59:15;;;;;;;14.60;8.20;;;2.20;99.90;;;;;;4194703;28;20257;-51
2024/02/22 01:01:17;;;;;;;17.87;10.17;;;2.10;99.90;;;;;;4193492;28;20278;-59
2024/02/22 01:03:18;;;;;;;18.80;10.33;;;2.10;99.90;;;;;;4194765;28;20311;-60
2024/02/22 01:05:19;;;;;;;17.13;9.63;;;2.00;99.90;;;;;;4193566;28;20861;-62
2024/02/22 01:07:21;;;;;;;14.53;8.63;;;2.00;99.90;;;;;;4193942;28;20649;-61
2024/02/22 01:09:22;;;;;;;21.93;10.77;;;2.00;99.90;;;;;;4193758;28;20295;-59
2024/02/22 01:11:23;;;;;;;22.53;11.07;;;2.00;99.90;;;;;;4194096;28;20281;-65
2024/02/22 01:13:25;;;;;;;16.40;9.20;;;2.00;99.90;;;;;;4193895;28;20261;-61
2024/02/22 01:15:26;;;;;;;18.03;9.70;;;2.00;99.90;;;;;;4193571;28;20354;-52
2024/02/22 01:17:29;;;;;;;20.50;10.70;;;1.90;99.90;;;;;;4192317;28;20311;-60
2024/02/22 01:19:30;;;;;;;15.20;8.90;;;2.00;99.90;;;;;;4192969;28;20331;-56
2024/02/22 01:21:31;;;;;;;15.90;8.30;;;1.90;99.90;;;;;;4194120;28;20812;-63
2024/02/22 01:23:32;;;;;;;14.07;8.63;;;1.90;99.90;;;;;;4193089;28;20285;-59
2024/02/22 01:25:34;;;;;;;15.40;7.70;;;1.90;99.90;;;;;;4194131;28;20300;-62
2024/02/22 01:27:35;;;;;;;13.00;7.97;;;1.80;99.90;;;;;;4193080;28;20702;-57
2024/02/22 01:29:36;;;;;;;13.77;8.03;;;1.70;99.90;;;;;;4194083;28;20322;-59
2024/02/22 01:31:37;;;;;;;13.37;8.30;;;1.70;99.90;;;;;;4193027;28;20265;-62
2024/02/22 01:33:39;;;;;;;13.13;7.33;;;1.70;99.90;;;;;;4192963;28;20261;-58
2024/02/22 01:35:40;;;;;;;12.53;7.40;;;1.70;99.90;;;;;;4193189;28;20327;-61
2024/02/22 01:37:41;;;;;;;11.57;6.73;;;1.60;99.90;;;;;;4193981;28;20273;-64
2024/02/22 01:39:43;;;;;;;15.13;8.17;;;1.60;99.90;;;;;;4193103;28;20798;-62
2024/02/22 01:41:45;;;;;;;14.47;8.33;;;1.60;99.90;;;;;;4194226;28;20270;-62
2024/02/22 01:43:46;;;;;;;12.87;7.60;;;1.60;99.90;;;;;;4194170;28;20358;-63
2024/02/22 01:45:47;;;;;;;14.90;8.37;;;1.60;99.90;;;;;;4196616;28;20274;-63
2024/02/22 01:47:49;;;;;;;17.50;8.30;;;1.60;99.90;;;;;;4196723;28;20254;-60
2024/02/22 01:49:50;;;;;;;16.60;8.37;;;1.60;99.90;;;;;;4195992;28;20265;-55
2024/02/22 01:51:56;;;;;;;16.03;8.63;;;1.50;99.90;;;;;;4197441;28;20362;-55
2024/02/22 01:53:58;;;;;;;12.87;7.40;;;1.50;99.90;;;;;;4196272;28;20257;-61
2024/02/22 01:56:01;;;;;;;13.17;7.20;;;1.50;99.90;;;;;;4197253;28;20295;-57
2024/02/22 01:58:04;;;;;;;10.73;5.87;;;1.50;99.90;;;;;;4195894;28;20261;-60
2024/02/22 02:00:11;;;;;;;11.40;7.13;;;1.40;99.90;;;;;;4195496;28;20745;-54
2024/02/22 02:02:13;;;;;;;11.43;7.27;;;1.40;99.90;;;;;;4196319;28;20269;-62
2024/02/22 02:04:14;;;;;;;9.80;6.73;;;1.30;99.90;;;;;;4196766;28;20281;-62
2024/02/22 02:06:16;;;;;;;13.90;7.70;;;1.30;99.90;;;;;;4195731;28;20303;-58
2024/02/22 02:08:17;;;;;;;10.10;5.90;;;1.30;99.90;;;;;;4197016;28;20289;-64
2024/02/22 02:10:19;;;;;;;9.30;5.93;;;1.30;99.90;;;;;;4195636;28;20765;-54
2024/02/22 02:12:24;;;;;;;12.23;6.93;;;1.30;99.90;;;;;;4197412;28;20273;-63
2024/02/22 02:14:26;;;;;;;10.27;6.23;;;1.20;99.90;;;;;;4195889;28;20765;-63
2024/02/22 02:16:27;;;;;;;11.37;6.77;;;1.20;99.90;;;;;;4196075;28;20323;-63
2024/02/22 02:18:28;;;;;;;10.43;6.07;;;1.20;99.90;;;;;;4195396;28;20249;-59
2024/02/22 02:20:36;;;;;;;11.30;7.00;;;1.10;99.90;;;;;;4196666;28;20277;-64
2024/02/22 02:22:57;;;;;;;10.77;6.03;;;1.10;99.90;;;;;;4195395;28;20327;-60
2024/02/22 02:25:04;;;;;;;;;;;1.10;99.90;;;;;;4196352;28;20277;-60
2024/02/22 02:27:05;;;;;;;11.33;6.70;;;1.10;99.90;;;;;;4193575;28;19917;-61
2024/02/22 02:29:07;;;;;;;12.97;6.60;;;1.10;99.90;;;;;;4196200;28;20648;-61
2024/02/22 02:31:08;;;;;;;11.70;7.07;;;1.00;99.90;;;;;;4195078;28;20265;-62
2024/02/22 02:33:09;;;;;;;12.37;6.67;;;1.00;99.90;;;;;;4195459;28;20277;-62
2024/02/22 02:35:10;;;;;;;10.70;5.97;;;1.00;99.90;;;;;;4196282;28;20285;-61
2024/02/22 02:37:11;;;;;;;10.87;6.53;;;1.10;99.90;;;;;;4194605;28;20319;-62
2024/02/22 02:39:13;;;;;;;9.63;5.93;;;1.00;99.90;;;;;;4196419;28;20269;-62
2024/02/22 02:41:14;;;;;;;11.00;6.40;;;1.00;99.90;;;;;;4194988;28;20273;-60
2024/02/22 02:43:15;;;;;;;11.10;6.20;;;1.00;99.90;;;;;;4196240;28;20335;-61
2024/02/22 02:45:16;;;;;;;10.63;5.77;;;1.00;99.90;;;;;;4195152;28;20687;-62
2024/02/22 02:47:18;;;;;;;10.33;5.60;;;1.00;99.90;;;;;;4196480;28;20265;-61
2024/02/22 02:49:19;;;;;;;11.00;6.13;;;0.90;99.90;;;;;;4194710;28;20266;-58
2024/02/22 02:51:21;;;;;;;11.50;7.10;;;1.00;99.90;;;;;;4195882;28;20338;-58
2024/02/22 02:53:22;;;;;;;13.67;7.27;;;0.90;99.90;;;;;;4195082;28;20281;-61
2024/02/22 02:55:24;;;;;;;12.40;6.60;;;0.90;99.90;;;;;;4195175;28;20354;-62
2024/02/22 02:57:26;;;;;;;13.23;7.77;;;0.80;99.90;;;;;;4195400;28;20292;-62
2024/02/22 02:59:27;;;;;;;12.60;8.00;;;0.90;99.90;;;;;;4195610;28;21103;-60
2024/02/22 03:01:28;;;;;;;15.57;7.97;;;0.90;99.90;;;;;;4195079;28;21113;-60
2024/02/22 03:03:31;;;;;;;16.87;8.53;;;0.80;99.90;;;;;;4194877;28;20277;-63
2024/02/22 03:05:33;;;;;;;12.97;7.90;;;0.80;99.90;;;;;;4195609;28;20265;-60
2024/02/22 03:07:35;;;;;;;12.80;6.97;;;0.80;99.90;;;;;;4195128;28;20269;-63
2024/02/22 03:09:36;;;;;;;12.37;7.00;;;0.80;99.90;;;;;;4196158;28;20387;-63
2024/02/22 03:11:37;;;;;;;13.80;7.40;;;0.70;99.90;;;;;;4194833;28;20645;-62
2024/02/22 03:13:39;;;;;;;14.13;8.00;;;0.70;99.90;;;;;;4195827;28;20343;-59
2024/02/22 03:15:40;;;;;;;13.07;8.10;;;0.60;99.90;;;;;;4194085;28;20351;-58
2024/02/22 03:17:41;;;;;;;13.37;7.47;;;0.60;99.90;;;;;;4195900;28;20280;-56
2024/02/22 03:19:43;;;;;;;14.37;8.07;;;0.60;99.90;;;;;;4194546;28;20741;-54
2024/02/22 03:21:44;;;;;;;19.03;10.33;;;0.60;99.90;;;;;;4195957;28;20684;-56
2024/02/22 03:23:45;;;;;;;17.70;9.37;;;0.50;99.90;;;;;;4193928;28;20285;-60
2024/02/22 03:25:46;;;;;;;13.57;8.50;;;0.50;99.90;;;;;;4194715;28;20266;-63
2024/02/22 03:27:49;;;;;;;19.40;10.23;;;0.40;99.90;;;;;;4194356;28;20329;-60
2024/02/22 03:29:50;;;;;;;17.67;9.23;;;0.40;99.90;;;;;;4195056;28;20269;-61
2024/02/22 03:31:52;;;;;;;19.30;10.63;;;0.30;99.90;;;;;;4194465;28;20810;-60
2024/02/22 03:33:53;;;;;;;20.23;10.67;;;0.30;99.90;;;;;;4195023;28;20293;-61
2024/02/22 03:35:57;;;;;;;16.03;9.23;;;0.30;99.90;;;;;;4195175;28;20343;-61
2024/02/22 03:37:58;;;;;;;17.20;9.93;;;0.20;99.90;;;;;;4193934;28;20274;-60
2024/02/22 03:39:59;;;;;;;17.87;10.17;;;0.20;99.90;;;;;;4195206;28;20257;-61
2024/02/22 03:42:01;;;;;;;19.40;10.97;;;0.20;99.90;;;;;;4193833;28;20273;-60
2024/02/22 03:44:02;;;;;;;21.87;10.60;;;0.20;99.90;;;;;;4195282;28;20277;-53
2024/02/22 03:46:04;;;;;;;20.30;12.03;;;0.10;99.90;;;;;;4194225;28;20269;-59
2024/02/22 03:48:06;;;;;;;23.10;12.10;;;0.10;99.90;;;;;;4195279;28;20281;-56
2024/02/22 03:50:08;;;;;;;26.17;14.77;;;0.20;99.90;;;;;;4194059;28;20679;-59
2024/02/22 03:52:09;;;;;;;26.40;13.93;;;0.20;99.90;;;;;;4195056;28;20258;-59
2024/02/22 03:54:11;;;;;;;17.70;10.63;;;0.10;99.90;;;;;;4193702;28;20270;-58
2024/02/22 03:56:12;;;;;;;21.73;12.17;;;0.10;99.90;;;;;;4194629;28;20737;-60
2024/02/22 03:58:14;;;;;;;17.97;10.80;;;0.10;99.90;;;;;;4193992;28;20280;-59
2024/02/22 04:00:15;;;;;;;20.33;10.70;;;0.10;99.90;;;;;;4195000;28;20319;-60
2024/02/22 04:02:16;;;;;;;17.63;9.53;;;0.00;99.90;;;;;;4193782;28;20306;-61
2024/02/22 04:04:18;;;;;;;16.43;9.73;;;0.00;99.90;;;;;;4194491;28;20265;-62
2024/02/22 04:06:19;;;;;;;15.77;8.73;;;0.00;99.90;;;;;;4193748;28;20329;-62
2024/02/22 04:08:20;;;;;;;17.87;9.77;;;0.00;99.90;;;;;;4193627;28;20265;-60
2024/02/22 04:10:21;;;;;;;15.37;9.77;;;0.00;99.90;;;;;;4194609;28;20668;-62
2024/02/22 04:12:23;;;;;;;18.90;10.60;;;-0.10;99.90;;;;;;4193705;28;20327;-62
2024/02/22 04:14:24;;;;;;;21.03;12.23;;;-0.10;99.90;;;;;;4194789;28;20339;-58
2024/02/22 04:16:25;;;;;;;21.00;11.67;;;-0.10;99.90;;;;;;4193989;28;20311;-56
2024/02/22 04:18:26;;;;;;;21.13;11.77;;;-0.10;99.90;;;;;;4195390;28;20262;-61
2024/02/22 04:20:28;;;;;;;20.07;10.93;;;-0.10;99.90;;;;;;4193689;28;20269;-59
2024/02/22 04:22:45;;;;;;;20.50;12.43;;;-0.10;99.90;;;;;;4194608;28;20278;-62
2024/02/22 04:24:46;;;;;;;21.37;12.13;;;-0.20;99.90;;;;;;4178956;28;20278;-51
2024/02/22 04:29:12;;;;;;;21.33;11.30;;;-0.20;99.90;;;;;;4616897;22;20298;-58
2024/02/22 04:31:13;;;;;;;22.57;12.27;;;-0.20;99.90;;;;;;4176004;28;20270;-59
2024/02/22 04:33:14;;;;;;;27.03;13.40;;;-0.20;99.90;;;;;;4176964;28;20327;-62
2024/02/22 04:35:16;;;;;;;25.40;13.40;;;-0.20;99.90;;;;;;4176629;28;20688;-59
2024/02/22 04:37:18;;;;;;;25.10;13.60;;;-0.20;99.90;;;;;;4176555;28;20282;-64
2024/02/22 04:39:19;;;;;;;23.80;13.53;;;-0.20;99.90;;;;;;4177276;28;20657;-61
2024/02/22 04:41:21;;;;;;;23.57;11.60;;;-0.20;99.90;;;;;;4175625;28;20289;-55
2024/02/22 04:43:22;;;;;;;28.23;13.87;;;-0.20;99.90;;;;;;4176522;28;20749;-63
2024/02/22 04:45:24;;;;;;;28.87;14.23;;;-0.20;99.90;;;;;;4175921;28;21072;-57
2024/02/22 04:47:25;;;;;;;26.60;14.20;;;-0.20;99.90;;;;;;4177519;28;20765;-59
2024/02/22 04:49:26;;;;;;;26.47;14.30;;;-0.20;99.90;;;;;;4175990;28;20692;-59
2024/02/22 04:51:31;;;;;;;26.20;13.23;;;-0.20;99.90;;;;;;4177678;28;20768;-55
2024/02/22 04:53:32;;;;;;;28.60;13.73;;;-0.20;99.90;;;;;;4176250;28;20270;-52
2024/02/22 04:55:34;;;;;;;26.27;13.43;;;-0.20;99.90;;;;;;4177661;28;20294;-56
2024/02/22 04:57:35;;;;;;;24.17;12.30;;;-0.20;99.90;;;;;;4176883;28;20274;-58
2024/02/22 04:59:37;;;;;;;23.17;12.80;;;-0.20;99.90;;;;;;4178027;28;20274;-55
2024/02/22 05:01:39;;;;;;;22.67;11.80;;;-0.20;99.90;;;;;;4175717;28;20801;-62
2024/02/22 05:03:40;;;;;;;23.10;12.37;;;-0.20;99.90;;;;;;4177363;28;20270;-58
2024/02/22 05:05:43;;;;;;;22.47;12.53;;;-0.20;99.90;;;;;;4176415;28;21118;-56
2024/02/22 05:07:44;;;;;;;21.93;12.53;;;-0.30;99.90;;;;;;4175920;28;20282;-59
2024/02/22 05:09:45;;;;;;;21.57;12.10;;;-0.30;99.90;;;;;;4176315;28;20274;-65
2024/02/22 05:11:49;;;;;;;20.53;11.77;;;-0.30;99.90;;;;;;4175864;28;20332;-60
2024/02/22 05:13:53;;;;;;;20.73;11.23;;;-0.40;99.90;;;;;;4176268;28;21106;-54
2024/02/22 05:15:54;;;;;;;23.83;12.50;;;-0.40;99.90;;;;;;4176700;28;20289;-55
2024/02/22 05:17:56;;;;;;;20.63;11.23;;;-0.30;99.90;;;;;;4178622;28;20270;-57
2024/02/22 05:19:57;;;;;;;24.00;12.70;;;-0.30;99.90;;;;;;4178676;28;20343;-58
2024/02/22 05:21:58;;;;;;;25.03;12.77;;;-0.30;99.90;;;;;;4180144;28;20262;-59
2024/02/22 05:24:00;;;;;;;24.33;13.00;;;-0.30;99.90;;;;;;4179675;28;20802;-63
2024/02/22 05:26:01;;;;;;;20.00;11.57;;;-0.30;99.90;;;;;;4179361;28;20680;-60
2024/02/22 05:28:03;;;;;;;21.63;11.30;;;-0.30;99.90;;;;;;4179711;28;20294;-62
2024/02/22 05:30:04;;;;;;;17.07;10.70;;;-0.30;99.90;;;;;;4180485;28;20285;-55
2024/02/22 05:32:06;;;;;;;19.70;10.73;;;-0.30;99.90;;;;;;4178043;28;20274;-61
2024/02/22 05:34:08;;;;;;;18.90;10.80;;;-0.20;99.90;;;;;;4179934;28;20324;-54
2024/02/22 05:36:09;;;;;;;15.83;10.20;;;-0.10;99.90;;;;;;4178890;28;20367;-57
2024/02/22 05:38:11;;;;;;;22.70;12.07;;;0.00;99.90;;;;;;4180368;28;20278;-62
2024/02/22 05:40:12;;;;;;;23.97;11.80;;;0.20;99.90;;;;;;4178684;28;20643;-54
2024/02/22 05:42:13;;;;;;;19.63;10.67;;;0.40;99.90;;;;;;4179488;28;20286;-62
2024/02/22 05:44:18;;;;;;;19.77;10.57;;;0.50;99.90;;;;;;4178750;28;20335;-55
2024/02/22 05:46:19;;;;;;;18.93;10.97;;;0.50;99.90;;;;;;4179657;28;20274;-58
2024/02/22 05:48:20;;;;;;;20.80;11.00;;;0.40;99.90;;;;;;4179329;28;20383;-57
2024/02/22 05:50:22;;;;;;;29.40;14.53;;;0.40;99.90;;;;;;4178571;28;20695;-64
2024/02/22 05:52:23;;;;;;;36.07;17.63;;;0.40;99.90;;;;;;4179501;28;20343;-53
2024/02/22 05:54:24;;;;;;;30.90;17.20;;;0.50;99.90;;;;;;4178640;28;20692;-53
2024/02/22 05:56:25;;;;;;;28.63;15.70;;;0.60;99.90;;;;;;4179360;28;20355;-56
2024/02/22 05:58:26;;;;;;;28.33;14.20;;;0.70;99.90;;;;;;4178822;28;20356;-61
2024/02/22 06:00:28;;;;;;;26.23;14.03;;;0.90;99.90;;;;;;4179974;28;20275;-53
2024/02/22 06:02:29;;;;;;;22.60;13.77;;;1.10;99.90;;;;;;4179238;28;21050;-61
2024/02/22 06:04:30;;;;;;;21.57;13.17;;;1.20;99.90;;;;;;4180408;28;20669;-59
2024/02/22 06:06:31;;;;;;;21.97;14.00;;;1.30;99.90;;;;;;4179270;28;20282;-58
2024/02/22 06:08:33;;;;;;;29.53;15.63;;;1.50;99.90;;;;;;4178941;28;20286;-61
2024/02/22 06:10:35;;;;;;;22.50;12.83;;;1.70;99.90;;;;;;4178348;28;20320;-62
2024/02/22 06:12:37;;;;;;;25.63;15.23;;;2.00;99.90;;;;;;4178838;28;20313;-57
2024/02/22 06:14:38;;;;;;;21.90;13.07;;;2.20;99.90;;;;;;4178763;28;20266;-56
2024/02/22 06:16:39;;;;;;;27.87;15.73;;;2.40;99.90;;;;;;4177872;28;20749;-52
2024/02/22 06:18:40;;;;;;;23.93;14.87;;;2.30;99.90;;;;;;4158836;28;20275;-61
2024/02/22 06:20:42;;;;;;;24.70;15.23;;;2.30;99.90;;;;;;4164651;28;20762;-54
2024/02/22 06:22:43;;;;;;;23.93;14.20;;;2.40;99.90;;;;;;4151409;28;20870;-59
2024/02/22 06:24:45;;;;;;;25.60;14.53;;;2.60;99.90;;;;;;4166211;28;20278;-62
2024/02/22 06:26:46;;;;;;;24.00;14.33;;;2.60;99.90;;;;;;4160682;28;20797;-56
2024/02/22 06:28:47;;;;;;;22.80;14.73;;;2.40;99.90;;;;;;4164762;28;20263;-56
2024/02/22 06:30:49;;;;;;;24.27;14.43;;;2.80;99.90;;;;;;4171342;28;20684;-56
2024/02/22 06:32:50;;;;;;;22.07;13.60;;;3.00;99.90;;;;;;4155096;28;20262;-50
2024/02/22 06:34:51;;;;;;;25.97;14.60;;;3.30;99.90;;;;;;4158615;28;20669;-57
2024/02/22 06:36:53;;;;;;;25.33;14.70;;;3.40;99.90;;;;;;4158257;28;20323;-55
2024/02/22 06:38:54;;;;;;;28.00;16.13;;;3.10;99.90;;;;;;4178175;28;20071;-62
2024/02/22 06:40:55;;;;;;;32.37;16.83;;;2.60;99.90;;;;;;4176562;28;20032;-60
2024/02/22 06:42:57;;;;;;;56.10;16.47;;;2.20;99.90;;;;;;4178574;28;20041;-63
2024/02/22 06:44:58;;;;;;;72.40;15.57;;;1.80;99.90;;;;;;4177960;28;20250;-57
2024/02/22 06:47:00;;;;;;;67.60;14.20;;;1.50;99.90;;;;;;4178397;28;20664;-57
2024/02/22 06:49:01;;;;;;;138.93;17.17;;;1.00;99.90;;;;;;4160880;28;20382;-62
2024/02/22 06:51:02;;;;;;;136.87;18.60;;;0.70;99.90;;;;;;4177606;28;20282;-61
2024/02/22 06:53:04;;;;;;;57.83;17.13;;;0.50;99.90;;;;;;4178670;28;20819;-63
2024/02/22 06:55:07;;;;;;;76.13;18.70;;;0.30;99.90;;;;;;4178225;28;20634;-61
2024/02/22 06:57:08;;;;;;;98.13;19.30;;;0.20;99.90;;;;;;4178454;28;20282;-56
2024/02/22 06:59:11;;;;;;;117.60;19.97;;;0.10;99.90;;;;;;4178767;28;20278;-62
2024/02/22 07:01:13;;;;;;;105.27;18.70;;;0.00;99.90;;;;;;4179250;28;20262;-60
2024/02/22 07:03:15;;;;;;;121.73;20.47;;;0.00;99.90;;;;;;4177027;28;20270;-60
2024/02/22 07:05:16;;;;;;;126.40;21.80;;;-0.20;99.90;;;;;;4179311;28;20258;-63
2024/02/22 07:07:17;;;;;;;154.40;19.63;;;-0.10;99.90;;;;;;4175243;28;20270;-60
2024/02/22 07:09:19;;;;;;;98.77;18.80;;;-0.20;99.90;;;;;;4162491;28;20693;-53
2024/02/22 07:11:21;;;;;;;321.43;25.70;;;-0.20;99.90;;;;;;4163404;28;20259;-61
2024/02/22 07:13:23;;;;;;;194.17;26.10;;;-0.30;99.90;;;;;;4167664;28;20275;-60
2024/02/22 07:15:24;;;;;;;310.10;28.43;;;-0.40;99.90;;;;;;4160182;28;20773;-60
2024/02/22 07:17:25;;;;;;;160.90;19.97;;;-0.40;99.90;;;;;;4175538;28;20274;-55
2024/02/22 07:19:27;;;;;;;94.73;17.93;;;-0.40;99.90;;;;;;4175649;28;20258;-62
2024/02/22 07:21:35;;;;;;;256.17;20.40;;;-0.40;99.90;;;;;;4177297;28;20819;-63
2024/02/22 07:23:36;;;;;;;290.30;22.63;;;-0.50;99.90;;;;;;4177926;28;20761;-63
2024/02/22 07:25:37;;;;;;;187.00;22.53;;;-0.50;99.90;;;;;;4177355;28;20327;-63
2024/02/22 07:27:40;;;;;;;193.90;24.63;;;-0.60;99.90;;;;;;4178706;28;20645;-62
2024/02/22 07:29:41;;;;;;;156.13;19.93;;;-0.50;99.90;;;;;;4178199;28;20296;-61
2024/02/22 07:31:43;;;;;;;141.23;21.97;;;-0.50;99.90;;;;;;4177841;28;20947;-63
2024/02/22 07:33:44;;;;;;;118.23;25.50;;;-0.50;99.90;;;;;;4176610;28;20285;-61
2024/02/22 07:35:45;;;;;;;143.97;20.43;;;-0.50;99.90;;;;;;4178354;28;20302;-61
2024/02/22 07:37:46;;;;;;;235.27;24.37;;;-0.50;99.90;;;;;;4177209;28;20270;-57
2024/02/22 07:39:47;;;;;;;109.83;18.83;;;-0.50;99.90;;;;;;4178460;28;20344;-56
2024/02/22 07:41:49;;;;;;;138.17;20.30;;;-0.50;99.90;;;;;;4175313;28;20282;-62
2024/02/22 07:43:50;;;;;;;125.20;20.10;;;-0.50;99.90;;;;;;4177864;28;20737;-61
2024/02/22 07:45:52;;;;;;;256.70;25.50;;;-0.50;99.90;;;;;;4176157;28;20270;-60
2024/02/22 07:47:56;;;;;;;172.40;26.63;;;-0.50;99.90;;;;;;4177108;28;20281;-55
2024/02/22 07:49:58;;;;;;;88.83;18.90;;;-0.50;99.90;;;;;;4177376;28;20258;-62
2024/02/22 07:51:59;;;;;;;117.80;19.83;;;-0.40;99.90;;;;;;4177179;28;20262;-64
2024/02/22 07:54:00;;;;;;;77.17;19.67;;;-0.30;99.90;;;;;;4177089;28;20282;-62
2024/02/22 07:56:03;;;;;;;107.07;21.50;;;-0.20;99.90;;;;;;4176467;28;20310;-62
2024/02/22 07:58:04;;;;;;;106.10;20.70;;;-0.10;99.90;;;;;;4177920;28;20341;-64
2024/02/22 08:00:07;;;;;;;96.00;21.60;;;-0.10;99.90;;;;;;4176815;28;20262;-63
2024/02/22 08:02:09;;;;;;;104.27;19.93;;;0.00;99.90;;;;;;4177908;28;20293;-60
2024/02/22 08:04:11;;;;;;;110.13;20.90;;;0.00;99.90;;;;;;4162417;28;20801;-56
2024/02/22 08:06:13;;;;;;;188.30;25.80;;;-0.10;99.90;;;;;;4162679;28;20259;-63
2024/02/22 08:08:15;;;;;;;297.93;28.03;;;-0.10;99.90;;;;;;4176819;28;20300;-62
2024/02/22 08:10:17;;;;;;;159.93;21.67;;;0.00;99.90;;;;;;4172888;28;20267;-63
2024/02/22 08:12:18;;;;;;;278.20;28.30;;;0.00;99.90;;;;;;4160279;28;20267;-62
2024/02/22 08:14:20;;;;;;;202.53;21.53;;;-0.10;99.90;;;;;;4163203;28;20344;-62
2024/02/22 08:16:21;;;;;;;139.03;19.87;;;-0.10;99.90;;;;;;4176247;28;20324;-62
2024/02/22 08:18:22;;;;;;;151.00;19.13;;;-0.10;99.90;;;;;;4171103;28;20270;-63
2024/02/22 08:20:23;;;;;;;165.63;19.57;;;-0.10;99.90;;;;;;4160651;28;20895;-62
2024/02/22 08:22:24;;;;;;;45.30;14.67;;;-0.10;99.90;;;;;;4162706;28;20325;-64
2024/02/22 08:24:26;;;;;;;150.20;18.53;;;-0.10;99.90;;;;;;4166150;28;20281;-58
2024/02/22 08:26:27;;;;;;;61.83;14.67;;;-0.10;99.90;;;;;;4176875;28;20741;-62
2024/02/22 08:28:29;;;;;;;61.87;14.60;;;0.00;99.90;;;;;;4169810;28;20275;-62
2024/02/22 08:30:31;;;;;;;61.77;15.20;;;0.10;99.90;;;;;;4161988;28;20369;-62
2024/02/22 08:32:32;;;;;;;71.40;16.13;;;0.10;99.90;;;;;;4166875;28;20266;-51
2024/02/22 08:34:33;;;;;;;67.70;15.87;;;0.20;99.90;;;;;;4160199;28;20352;-60
2024/02/22 08:36:34;;;;;;;65.90;15.67;;;0.20;99.90;;;;;;4186901;28;20296;-58
2024/02/22 08:38:35;;;;;;;46.10;15.47;;;0.20;99.90;;;;;;4175170;28;20254;-63
2024/02/22 08:40:37;;;;;;;104.27;17.73;;;0.20;99.90;;;;;;4177206;28;20278;-63
2024/02/22 08:42:38;;;;;;;113.57;17.90;;;0.30;99.90;;;;;;4175468;28;20332;-64
2024/02/22 08:44:39;;;;;;;36.53;13.87;;;0.30;99.90;;;;;;4176419;28;20348;-64
2024/02/22 08:46:41;;;;;;;43.43;15.70;;;0.30;99.90;;;;;;4167083;28;20271;-65
2024/02/22 08:48:42;;;;;;;39.33;15.90;;;0.30;99.90;;;;;;4177372;28;20278;-61
2024/02/22 08:50:44;;;;;;;54.70;17.60;;;0.40;99.90;;;;;;4175912;28;20303;-62
2024/02/22 08:52:45;;;;;;;52.60;15.13;;;0.40;99.90;;;;;;4177343;28;20324;-58
2024/02/22 08:54:47;;;;;;;34.77;15.83;;;0.50;99.90;;;;;;4175638;28;20289;-59
2024/02/22 08:56:48;;;;;;;63.20;14.93;;;0.50;99.90;;;;;;4179786;28;20344;-62
2024/02/22 08:58:49;;;;;;;30.07;14.73;;;0.60;99.90;;;;;;4179669;28;20712;-59
2024/02/22 09:00:51;;;;;;;31.40;15.93;;;0.60;99.90;;;;;;4179969;28;20300;-65
2024/02/22 09:02:52;;;;;;;38.80;14.13;;;0.70;99.90;;;;;;4179969;28;20387;-63
2024/02/22 09:04:53;;;;;;;43.60;13.73;;;0.70;99.90;;;;;;4179555;28;20269;-64
2024/02/22 09:06:54;;;;;;;31.80;15.83;;;0.70;99.90;;;;;;4180763;28;20328;-66
2024/02/22 09:08:56;;;;;;;32.87;17.17;;;0.80;99.90;;;;;;4177707;28;20823;-66
2024/02/22 09:10:57;;;;;;;34.07;13.63;;;0.90;99.90;;;;;;4178851;28;20278;-61
2024/02/22 09:12:58;;;;;;;28.00;13.00;;;0.90;99.90;;;;;;4179232;28;20328;-65
2024/02/22 09:14:59;;;;;;;35.67;13.33;;;0.90;99.90;;;;;;4180614;28;20266;-64
2024/02/22 09:17:02;;;;;;;26.70;14.63;;;0.90;99.90;;;;;;4178801;28;20313;-66
2024/02/22 09:19:03;;;;;;;30.87;13.30;;;0.90;99.90;;;;;;4178318;28;20282;-66
2024/02/22 09:21:05;;;;;;;25.80;12.83;;;1.00;99.90;;;;;;4178769;28;20304;-64
2024/02/22 09:23:06;;;;;;;26.47;13.50;;;1.10;99.90;;;;;;4179651;28;20270;-54
2024/02/22 09:25:09;;;;;;;26.33;14.20;;;1.10;99.90;;;;;;4178102;28;20328;-64
2024/02/22 09:27:12;;;;;;;26.07;14.93;;;1.20;99.90;;;;;;4179464;28;20304;-56
2024/02/22 09:29:14;;;;;;;31.80;16.17;;;1.20;99.90;;;;;;4179002;28;20811;-65
2024/02/22 09:31:17;;;;;;;25.87;14.43;;;1.20;99.90;;;;;;4179735;28;20363;-63
2024/02/22 09:33:18;;;;;;;28.37;14.47;;;1.30;99.90;;;;;;4179608;28;20266;-65
2024/02/22 09:35:19;;;;;;;23.87;13.60;;;1.40;99.90;;;;;;4177287;28;20761;-65
2024/02/22 09:37:21;;;;;;;22.13;13.03;;;1.60;99.90;;;;;;4180266;28;20290;-61
2024/02/22 09:39:23;;;;;;;22.17;12.80;;;1.60;99.90;;;;;;4177936;28;20336;-61
2024/02/22 09:41:25;;;;;;;17.17;11.80;;;1.60;99.90;;;;;;4179712;28;20677;-55
2024/02/22 09:43:27;;;;;;;19.47;11.07;;;1.60;99.90;;;;;;4178190;28;20340;-55
2024/02/22 09:45:29;;;;;;;20.57;11.03;;;1.70;99.90;;;;;;4180025;28;20761;-57
2024/02/22 09:47:30;;;;;;;18.17;10.57;;;1.70;99.90;;;;;;4175507;28;20274;-52
2024/02/22 09:49:32;;;;;;;24.93;11.50;;;1.80;99.90;;;;;;4179549;28;20611;-59
2024/02/22 09:51:35;;;;;;;30.77;16.00;;;1.90;99.90;;;;;;4178158;28;20343;-59
2024/02/22 09:53:36;;;;;;;21.33;11.97;;;2.10;99.90;;;;;;4179122;28;20274;-58
2024/02/22 09:55:38;;;;;;;21.83;11.27;;;2.20;99.90;;;;;;4179020;28;20316;-54
2024/02/22 09:57:40;;;;;;;21.07;10.67;;;2.30;99.90;;;;;;4178849;28;20331;-48
2024/02/22 09:59:51;;;;;;;17.43;9.70;;;2.40;99.90;;;;;;4178873;28;20326;-63
2024/02/22 10:01:57;;;;;;;16.60;9.90;;;2.40;99.90;;;;;;4179837;28;20315;-54
2024/02/22 10:04:09;;;;;;;15.97;9.93;;;2.40;99.90;;;;;;4178715;28;20274;-58
2024/02/22 10:06:20;;;;;;;18.13;11.10;;;2.40;99.90;;;;;;4177944;28;20339;-61
2024/02/22 10:08:23;;;;;;;19.00;9.70;;;2.40;99.90;;;;;;4176430;28;20262;-56
2024/02/22 10:10:28;;;;;;;21.50;9.90;;;2.60;99.90;;;;;;4178837;28;20327;-63
2024/02/22 10:12:32;;;;;;;17.40;9.17;;;2.80;99.90;;;;;;4178010;28;20286;-60
2024/02/22 10:14:36;;;;;;;18.10;9.97;;;2.90;99.90;;;;;;4177785;28;20343;-65
2024/02/22 10:16:40;;;;;;;16.00;9.83;;;2.90;99.90;;;;;;4160819;28;20291;-64
2024/02/22 10:18:41;;;;;;;17.17;9.87;;;3.10;99.90;;;;;;4179106;28;20349;-59
2024/02/22 10:20:43;;;;;;;13.90;8.70;;;3.30;99.90;;;;;;4179166;28;20321;-62
2024/02/22 10:22:46;;;;;;;21.10;10.40;;;3.30;99.90;;;;;;4177770;28;20812;-61
2024/02/22 10:24:47;;;;;;;12.50;8.20;;;3.40;99.90;;;;;;4178197;28;20274;-61
2024/02/22 10:26:50;;;;;;;15.03;8.07;;;3.30;99.90;;;;;;4177744;28;20816;-53